< < Back
Terminal Aerodrome Forecast


Current Version              Previous Versions:   1  2  3  4  5  6  7  8  9  

Terminal Aerodrome Forecast

343
FTUS42 KILM 280302 AAA
TAFILM
TAF AMD
KILM 280302Z 2803/2824 02010KT P6SM FEW015 SCT025
     FM280800 02005KT 6SM BR SCT005 BKN015
     FM281300 03010KT P6SM VCSH SCT025 BKN035
     FM281800 06010KT P6SM VCTS SCT030CB BKN050=

Latest METAR

727
SAUS70 KWBC 281200 RRB
MTRILM
METAR KILM 281153Z 02008KT 10SM CLR 22/18 A3010 RMK AO2 SLP194 T02170183
10217 20200 53019


USA.gov is the U.S. government's official web portal to all federal, state and local government web resources and services.